sensor_id;sensor_type;location;lat;lon;timestamp;P1;durP1;ratioP1;P2;durP2;ratioP2
63555;SDS011;49700;48.072;7.800;2023-03-31T00:01:47;4.70;;;2.92;;
63555;SDS011;49700;48.072;7.800;2023-03-31T00:04:13;4.43;;;3.17;;
63555;SDS011;49700;48.072;7.800;2023-03-31T00:06:39;9.40;;;3.10;;
63555;SDS011;49700;48.072;7.800;2023-03-31T00:09:13;6.47;;;3.30;;
63555;SDS011;49700;48.072;7.800;2023-03-31T00:11:43;3.53;;;2.88;;
63555;SDS011;49700;48.072;7.800;2023-03-31T00:14:09;4.50;;;3.17;;
63555;SDS011;49700;48.072;7.800;2023-03-31T00:16:36;3.88;;;2.60;;
63555;SDS011;49700;48.072;7.800;2023-03-31T00:19:02;7.70;;;3.63;;
63555;SDS011;49700;48.072;7.800;2023-03-31T00:21:28;6.97;;;3.00;;
63555;SDS011;49700;48.072;7.800;2023-03-31T00:24:01;3.70;;;3.40;;
63555;SDS011;49700;48.072;7.800;2023-03-31T00:26:28;4.38;;;2.88;;
63555;SDS011;49700;48.072;7.800;2023-03-31T00:28:54;6.20;;;3.30;;
63555;SDS011;49700;48.072;7.800;2023-03-31T00:31:21;5.57;;;2.90;;
63555;SDS011;49700;48.072;7.800;2023-03-31T00:33:47;7.28;;;3.70;;
63555;SDS011;49700;48.072;7.800;2023-03-31T00:36:13;4.40;;;3.07;;
63555;SDS011;49700;48.072;7.800;2023-03-31T00:38:48;6.05;;;3.08;;
63555;SDS011;49700;48.072;7.800;2023-03-31T00:41:13;7.85;;;2.92;;
63555;SDS011;49700;48.072;7.800;2023-03-31T00:43:40;5.80;;;3.15;;
63555;SDS011;49700;48.072;7.800;2023-03-31T00:48:45;4.18;;;2.85;;
63555;SDS011;49700;48.072;7.800;2023-03-31T00:51:15;6.97;;;3.30;;
63555;SDS011;49700;48.072;7.800;2023-03-31T00:53:43;6.38;;;4.05;;
63555;SDS011;49700;48.072;7.800;2023-03-31T00:56:12;5.00;;;3.17;;
63555;SDS011;49700;48.072;7.800;2023-03-31T00:58:40;4.28;;;2.95;;
63555;SDS011;49700;48.072;7.800;2023-03-31T01:01:12;6.80;;;4.00;;
63555;SDS011;49700;48.072;7.800;2023-03-31T01:03:41;5.15;;;3.45;;
63555;SDS011;49700;48.072;7.800;2023-03-31T01:06:09;4.88;;;3.20;;
63555;SDS011;49700;48.072;7.800;2023-03-31T01:08:35;4.47;;;3.23;;
63555;SDS011;49700;48.072;7.800;2023-03-31T01:11:06;4.05;;;3.22;;
63555;SDS011;49700;48.072;7.800;2023-03-31T01:13:36;5.50;;;3.45;;
63555;SDS011;49700;48.072;7.800;2023-03-31T01:16:07;3.55;;;3.25;;
63555;SDS011;49700;48.072;7.800;2023-03-31T01:18:33;7.35;;;3.60;;
63555;SDS011;49700;48.072;7.800;2023-03-31T01:46:27;5.25;;;3.30;;
63555;SDS011;49700;48.072;7.800;2023-03-31T01:54:37;4.30;;;3.90;;
63555;SDS011;49700;48.072;7.800;2023-03-31T01:57:13;4.82;;;4.35;;
63555;SDS011;49700;48.072;7.800;2023-03-31T02:00:02;4.03;;;3.40;;
63555;SDS011;49700;48.072;7.800;2023-03-31T02:02:49;4.00;;;3.33;;
63555;SDS011;49700;48.072;7.800;2023-03-31T02:05:26;7.32;;;4.72;;
63555;SDS011;49700;48.072;7.800;2023-03-31T02:07:58;4.22;;;3.83;;
63555;SDS011;49700;48.072;7.800;2023-03-31T02:10:45;4.32;;;3.10;;
63555;SDS011;49700;48.072;7.800;2023-03-31T02:13:13;5.47;;;3.70;;
63555;SDS011;49700;48.072;7.800;2023-03-31T02:15:41;5.85;;;4.18;;
63555;SDS011;49700;48.072;7.800;2023-03-31T02:18:11;4.75;;;3.85;;
63555;SDS011;49700;48.072;7.800;2023-03-31T02:20:43;5.28;;;3.95;;
63555;SDS011;49700;48.072;7.800;2023-03-31T02:23:13;10.18;;;4.28;;
63555;SDS011;49700;48.072;7.800;2023-03-31T02:25:50;6.60;;;4.07;;
63555;SDS011;49700;48.072;7.800;2023-03-31T02:28:21;4.25;;;3.85;;
63555;SDS011;49700;48.072;7.800;2023-03-31T02:31:04;5.93;;;4.55;;
63555;SDS011;49700;48.072;7.800;2023-03-31T02:33:31;6.10;;;4.43;;
63555;SDS011;49700;48.072;7.800;2023-03-31T02:35:57;6.27;;;4.80;;
63555;SDS011;49700;48.072;7.800;2023-03-31T02:38:23;6.28;;;3.75;;
63555;SDS011;49700;48.072;7.800;2023-03-31T02:40:49;9.60;;;4.00;;
63555;SDS011;49700;48.072;7.800;2023-03-31T02:43:15;7.80;;;5.47;;
63555;SDS011;49700;48.072;7.800;2023-03-31T02:48:12;10.23;;;4.30;;
63555;SDS011;49700;48.072;7.800;2023-03-31T02:50:45;6.70;;;4.28;;
63555;SDS011;49700;48.072;7.800;2023-03-31T03:02:15;7.03;;;4.47;;
63555;SDS011;49700;48.072;7.800;2023-03-31T03:08:16;7.63;;;4.07;;
63555;SDS011;49700;48.072;7.800;2023-03-31T03:10:52;4.30;;;3.70;;
63555;SDS011;49700;48.072;7.800;2023-03-31T03:13:50;11.15;;;4.82;;
63555;SDS011;49700;48.072;7.800;2023-03-31T03:16:23;5.55;;;4.20;;
63555;SDS011;49700;48.072;7.800;2023-03-31T03:18:59;5.10;;;3.80;;
63555;SDS011;49700;48.072;7.800;2023-03-31T03:21:27;4.53;;;4.03;;
63555;SDS011;49700;48.072;7.800;2023-03-31T03:23:53;4.85;;;3.42;;
63555;SDS011;49700;48.072;7.800;2023-03-31T03:26:19;6.73;;;4.80;;
63555;SDS011;49700;48.072;7.800;2023-03-31T03:28:46;6.65;;;4.05;;
63555;SDS011;49700;48.072;7.800;2023-03-31T03:31:12;5.93;;;4.50;;
63555;SDS011;49700;48.072;7.800;2023-03-31T03:33:37;7.60;;;4.53;;
63555;SDS011;49700;48.072;7.800;2023-03-31T03:36:03;7.33;;;4.67;;
63555;SDS011;49700;48.072;7.800;2023-03-31T03:38:29;6.07;;;4.45;;
63555;SDS011;49700;48.072;7.800;2023-03-31T03:40:54;7.57;;;4.60;;
63555;SDS011;49700;48.072;7.800;2023-03-31T03:43:20;9.67;;;5.13;;
63555;SDS011;49700;48.072;7.800;2023-03-31T03:45:49;9.83;;;4.20;;
63555;SDS011;49700;48.072;7.800;2023-03-31T03:48:15;4.68;;;4.18;;
63555;SDS011;49700;48.072;7.800;2023-03-31T03:50:40;7.93;;;4.13;;
63555;SDS011;49700;48.072;7.800;2023-03-31T03:53:06;7.73;;;4.17;;
63555;SDS011;49700;48.072;7.800;2023-03-31T03:55:32;4.40;;;4.00;;
63555;SDS011;49700;48.072;7.800;2023-03-31T03:57:58;5.57;;;4.37;;
63555;SDS011;49700;48.072;7.800;2023-03-31T04:00:23;7.20;;;4.60;;
63555;SDS011;49700;48.072;7.800;2023-03-31T04:02:49;8.07;;;4.10;;
63555;SDS011;49700;48.072;7.800;2023-03-31T04:05:15;7.10;;;4.80;;
63555;SDS011;49700;48.072;7.800;2023-03-31T04:07:40;6.60;;;4.47;;
63555;SDS011;49700;48.072;7.800;2023-03-31T04:10:06;5.33;;;4.40;;
63555;SDS011;49700;48.072;7.800;2023-03-31T04:12:35;12.85;;;5.95;;
63555;SDS011;49700;48.072;7.800;2023-03-31T04:15:01;6.20;;;5.00;;
63555;SDS011;49700;48.072;7.800;2023-03-31T04:17:27;4.53;;;3.67;;
63555;SDS011;49700;48.072;7.800;2023-03-31T04:20:01;7.53;;;4.60;;
63555;SDS011;49700;48.072;7.800;2023-03-31T04:22:30;5.30;;;4.35;;
63555;SDS011;49700;48.072;7.800;2023-03-31T04:25:09;6.65;;;3.50;;
63555;SDS011;49700;48.072;7.800;2023-03-31T04:27:45;9.77;;;4.07;;
63555;SDS011;49700;48.072;7.800;2023-03-31T04:30:18;6.85;;;3.95;;
63555;SDS011;49700;48.072;7.800;2023-03-31T04:32:48;4.30;;;3.90;;
63555;SDS011;49700;48.072;7.800;2023-03-31T04:35:15;6.45;;;5.00;;
63555;SDS011;49700;48.072;7.800;2023-03-31T04:37:43;10.73;;;4.97;;
63555;SDS011;49700;48.072;7.800;2023-03-31T04:40:08;7.25;;;5.32;;
63555;SDS011;49700;48.072;7.800;2023-03-31T04:42:34;8.70;;;5.37;;
63555;SDS011;49700;48.072;7.800;2023-03-31T04:45:00;7.83;;;4.97;;
63555;SDS011;49700;48.072;7.800;2023-03-31T04:47:26;7.95;;;4.53;;
63555;SDS011;49700;48.072;7.800;2023-03-31T04:49:52;6.30;;;4.63;;
63555;SDS011;49700;48.072;7.800;2023-03-31T04:52:18;8.30;;;6.20;;
63555;SDS011;49700;48.072;7.800;2023-03-31T04:54:43;11.73;;;5.17;;
63555;SDS011;49700;48.072;7.800;2023-03-31T04:57:08;4.30;;;3.90;;
63555;SDS011;49700;48.072;7.800;2023-03-31T04:59:34;12.00;;;6.33;;
63555;SDS011;49700;48.072;7.800;2023-03-31T05:01:59;10.13;;;5.30;;
63555;SDS011;49700;48.072;7.800;2023-03-31T05:04:25;6.60;;;5.17;;
63555;SDS011;49700;48.072;7.800;2023-03-31T05:06:50;8.93;;;5.17;;
63555;SDS011;49700;48.072;7.800;2023-03-31T05:09:16;7.70;;;5.40;;
63555;SDS011;49700;48.072;7.800;2023-03-31T05:11:41;6.30;;;4.10;;
63555;SDS011;49700;48.072;7.800;2023-03-31T05:14:07;7.50;;;4.93;;
63555;SDS011;49700;48.072;7.800;2023-03-31T05:16:32;7.40;;;5.47;;
63555;SDS011;49700;48.072;7.800;2023-03-31T05:18:58;8.60;;;4.87;;
63555;SDS011;49700;48.072;7.800;2023-03-31T05:21:23;6.30;;;5.07;;
63555;SDS011;49700;48.072;7.800;2023-03-31T05:23:51;6.85;;;5.20;;
63555;SDS011;49700;48.072;7.800;2023-03-31T05:26:17;5.78;;;4.88;;
63555;SDS011;49700;48.072;7.800;2023-03-31T05:28:42;6.87;;;4.90;;
63555;SDS011;49700;48.072;7.800;2023-03-31T05:31:08;6.43;;;4.60;;
63555;SDS011;49700;48.072;7.800;2023-03-31T05:33:33;5.70;;;5.20;;
63555;SDS011;49700;48.072;7.800;2023-03-31T05:36:04;7.10;;;4.68;;
63555;SDS011;49700;48.072;7.800;2023-03-31T05:38:30;10.15;;;6.32;;
63555;SDS011;49700;48.072;7.800;2023-03-31T05:40:55;6.50;;;4.83;;
63555;SDS011;49700;48.072;7.800;2023-03-31T05:43:21;6.40;;;4.83;;
63555;SDS011;49700;48.072;7.800;2023-03-31T05:45:46;5.90;;;5.17;;
63555;SDS011;49700;48.072;7.800;2023-03-31T05:48:12;5.57;;;4.40;;
63555;SDS011;49700;48.072;7.800;2023-03-31T05:50:37;6.27;;;5.67;;
63555;SDS011;49700;48.072;7.800;2023-03-31T05:53:03;7.33;;;6.00;;
63555;SDS011;49700;48.072;7.800;2023-03-31T05:55:28;6.23;;;4.93;;
63555;SDS011;49700;48.072;7.800;2023-03-31T05:57:53;7.47;;;6.00;;
63555;SDS011;49700;48.072;7.800;2023-03-31T06:00:19;7.77;;;4.87;;
63555;SDS011;49700;48.072;7.800;2023-03-31T06:02:44;8.50;;;5.53;;
63555;SDS011;49700;48.072;7.800;2023-03-31T06:05:10;7.45;;;5.30;;
63555;SDS011;49700;48.072;7.800;2023-03-31T06:07:36;5.63;;;3.30;;
63555;SDS011;49700;48.072;7.800;2023-03-31T06:10:01;5.90;;;3.57;;
63555;SDS011;49700;48.072;7.800;2023-03-31T06:12:27;4.97;;;3.03;;
63555;SDS011;49700;48.072;7.800;2023-03-31T06:14:52;6.60;;;3.33;;
63555;SDS011;49700;48.072;7.800;2023-03-31T06:17:18;2.50;;;2.30;;
63555;SDS011;49700;48.072;7.800;2023-03-31T06:19:43;6.77;;;2.50;;
63555;SDS011;49700;48.072;7.800;2023-03-31T06:22:08;3.00;;;2.57;;
63555;SDS011;49700;48.072;7.800;2023-03-31T06:24:34;6.83;;;2.77;;
63555;SDS011;49700;48.072;7.800;2023-03-31T06:26:59;3.20;;;2.40;;
63555;SDS011;49700;48.072;7.800;2023-03-31T06:29:25;5.80;;;3.90;;
63555;SDS011;49700;48.072;7.800;2023-03-31T06:31:51;4.57;;;3.00;;
63555;SDS011;49700;48.072;7.800;2023-03-31T06:34:17;5.80;;;3.27;;
63555;SDS011;49700;48.072;7.800;2023-03-31T06:36:42;4.67;;;3.33;;
63555;SDS011;49700;48.072;7.800;2023-03-31T06:39:07;3.83;;;3.30;;
63555;SDS011;49700;48.072;7.800;2023-03-31T06:41:33;3.97;;;2.73;;
63555;SDS011;49700;48.072;7.800;2023-03-31T06:43:58;8.13;;;2.50;;
63555;SDS011;49700;48.072;7.800;2023-03-31T06:46:24;5.63;;;2.00;;
63555;SDS011;49700;48.072;7.800;2023-03-31T06:48:49;4.57;;;2.83;;
63555;SDS011;49700;48.072;7.800;2023-03-31T06:51:15;9.20;;;3.70;;
63555;SDS011;49700;48.072;7.800;2023-03-31T06:53:40;3.50;;;3.07;;
63555;SDS011;49700;48.072;7.800;2023-03-31T06:56:06;4.93;;;3.37;;
63555;SDS011;49700;48.072;7.800;2023-03-31T06:58:31;5.17;;;3.93;;
63555;SDS011;49700;48.072;7.800;2023-03-31T07:00:57;4.90;;;3.30;;
63555;SDS011;49700;48.072;7.800;2023-03-31T07:03:22;4.57;;;3.47;;
63555;SDS011;49700;48.072;7.800;2023-03-31T07:05:49;6.82;;;4.35;;
63555;SDS011;49700;48.072;7.800;2023-03-31T07:08:15;5.72;;;3.63;;
63555;SDS011;49700;48.072;7.800;2023-03-31T07:10:44;6.65;;;3.28;;
63555;SDS011;49700;48.072;7.800;2023-03-31T07:13:16;6.25;;;2.10;;
63555;SDS011;49700;48.072;7.800;2023-03-31T07:15:42;3.00;;;2.40;;
63555;SDS011;49700;48.072;7.800;2023-03-31T07:18:08;2.83;;;2.25;;
63555;SDS011;49700;48.072;7.800;2023-03-31T07:20:34;4.30;;;3.07;;
63555;SDS011;49700;48.072;7.800;2023-03-31T07:23:01;3.00;;;2.53;;
63555;SDS011;49700;48.072;7.800;2023-03-31T07:25:28;3.45;;;2.33;;
63555;SDS011;49700;48.072;7.800;2023-03-31T07:27:54;2.13;;;1.70;;
63555;SDS011;49700;48.072;7.800;2023-03-31T07:30:19;3.20;;;1.87;;
63555;SDS011;49700;48.072;7.800;2023-03-31T07:32:46;2.40;;;1.70;;
63555;SDS011;49700;48.072;7.800;2023-03-31T07:35:15;4.18;;;1.50;;
63555;SDS011;49700;48.072;7.800;2023-03-31T07:37:42;1.52;;;1.40;;
63555;SDS011;49700;48.072;7.800;2023-03-31T07:40:10;1.50;;;1.40;;
63555;SDS011;49700;48.072;7.800;2023-03-31T07:42:39;1.10;;;1.00;;
63555;SDS011;49700;48.072;7.800;2023-03-31T07:45:05;2.00;;;1.33;;
63555;SDS011;49700;48.072;7.800;2023-03-31T07:47:31;2.90;;;1.75;;
63555;SDS011;49700;48.072;7.800;2023-03-31T07:49:57;1.23;;;1.13;;
63555;SDS011;49700;48.072;7.800;2023-03-31T07:52:23;2.00;;;1.40;;
63555;SDS011;49700;48.072;7.800;2023-03-31T07:54:48;1.93;;;1.43;;
63555;SDS011;49700;48.072;7.800;2023-03-31T07:57:13;2.43;;;1.40;;
63555;SDS011;49700;48.072;7.800;2023-03-31T07:59:40;1.75;;;1.63;;
63555;SDS011;49700;48.072;7.800;2023-03-31T08:02:06;2.73;;;1.60;;
63555;SDS011;49700;48.072;7.800;2023-03-31T08:04:31;1.57;;;1.33;;
63555;SDS011;49700;48.072;7.800;2023-03-31T08:06:57;2.33;;;1.60;;
63555;SDS011;49700;48.072;7.800;2023-03-31T08:09:22;5.37;;;1.30;;
63555;SDS011;49700;48.072;7.800;2023-03-31T08:11:48;1.30;;;1.07;;
63555;SDS011;49700;48.072;7.800;2023-03-31T08:14:14;3.13;;;1.50;;
63555;SDS011;49700;48.072;7.800;2023-03-31T08:16:40;1.67;;;1.03;;
63555;SDS011;49700;48.072;7.800;2023-03-31T08:19:05;3.80;;;2.33;;
63555;SDS011;49700;48.072;7.800;2023-03-31T08:21:31;2.80;;;1.47;;
63555;SDS011;49700;48.072;7.800;2023-03-31T08:23:56;3.17;;;1.30;;
63555;SDS011;49700;48.072;7.800;2023-03-31T08:26:22;2.60;;;1.70;;
63555;SDS011;49700;48.072;7.800;2023-03-31T08:28:51;2.10;;;1.43;;
63555;SDS011;49700;48.072;7.800;2023-03-31T08:31:17;3.50;;;1.47;;
63555;SDS011;49700;48.072;7.800;2023-03-31T08:33:44;2.60;;;1.50;;
63555;SDS011;49700;48.072;7.800;2023-03-31T08:36:11;1.53;;;1.07;;
63555;SDS011;49700;48.072;7.800;2023-03-31T08:38:38;5.00;;;1.50;;
63555;SDS011;49700;48.072;7.800;2023-03-31T08:41:25;3.43;;;1.43;;
63555;SDS011;49700;48.072;7.800;2023-03-31T08:43:57;2.57;;;1.10;;
63555;SDS011;49700;48.072;7.800;2023-03-31T08:46:26;5.13;;;1.37;;
63555;SDS011;49700;48.072;7.800;2023-03-31T08:48:54;4.00;;;1.30;;
63555;SDS011;49700;48.072;7.800;2023-03-31T08:51:23;5.40;;;1.83;;
63555;SDS011;49700;48.072;7.800;2023-03-31T08:53:56;2.10;;;1.47;;
63555;SDS011;49700;48.072;7.800;2023-03-31T08:56:27;3.57;;;1.60;;
63555;SDS011;49700;48.072;7.800;2023-03-31T08:58:54;3.07;;;1.10;;
63555;SDS011;49700;48.072;7.800;2023-03-31T09:09:57;3.80;;;1.30;;
63555;SDS011;49700;48.072;7.800;2023-03-31T09:12:20;3.33;;;1.20;;
63555;SDS011;49700;48.072;7.800;2023-03-31T09:14:53;3.13;;;1.70;;
63555;SDS011;49700;48.072;7.800;2023-03-31T09:17:25;3.23;;;1.60;;
63555;SDS011;49700;48.072;7.800;2023-03-31T09:22:41;4.00;;;1.37;;
63555;SDS011;49700;48.072;7.800;2023-03-31T09:27:44;5.97;;;2.30;;
63555;SDS011;49700;48.072;7.800;2023-03-31T09:30:16;3.13;;;1.30;;
63555;SDS011;49700;48.072;7.800;2023-03-31T09:32:47;2.70;;;1.00;;
63555;SDS011;49700;48.072;7.800;2023-03-31T09:37:49;6.67;;;1.30;;
63555;SDS011;49700;48.072;7.800;2023-03-31T09:40:18;3.83;;;1.60;;
63555;SDS011;49700;48.072;7.800;2023-03-31T09:42:50;3.00;;;1.27;;
63555;SDS011;49700;48.072;7.800;2023-03-31T09:45:23;1.73;;;1.17;;
63555;SDS011;49700;48.072;7.800;2023-03-31T09:47:52;3.57;;;1.23;;
63555;SDS011;49700;48.072;7.800;2023-03-31T09:50:19;5.80;;;1.00;;
63555;SDS011;49700;48.072;7.800;2023-03-31T09:52:48;1.63;;;1.00;;
63555;SDS011;49700;48.072;7.800;2023-03-31T09:57:51;9.00;;;1.57;;
63555;SDS011;49700;48.072;7.800;2023-03-31T10:08:29;4.50;;;2.07;;
63555;SDS011;49700;48.072;7.800;2023-03-31T10:13:27;8.37;;;1.60;;
63555;SDS011;49700;48.072;7.800;2023-03-31T10:16:03;3.20;;;1.77;;
63555;SDS011;49700;48.072;7.800;2023-03-31T10:18:36;5.03;;;1.60;;
63555;SDS011;49700;48.072;7.800;2023-03-31T10:21:04;3.87;;;1.30;;
63555;SDS011;49700;48.072;7.800;2023-03-31T10:23:32;5.33;;;1.50;;
63555;SDS011;49700;48.072;7.800;2023-03-31T10:25:59;3.63;;;2.17;;
63555;SDS011;49700;48.072;7.800;2023-03-31T10:28:26;7.43;;;1.40;;
63555;SDS011;49700;48.072;7.800;2023-03-31T10:30:57;3.67;;;1.33;;
63555;SDS011;49700;48.072;7.800;2023-03-31T10:33:31;4.30;;;1.47;;
63555;SDS011;49700;48.072;7.800;2023-03-31T10:36:00;3.10;;;1.40;;
63555;SDS011;49700;48.072;7.800;2023-03-31T10:38:33;4.83;;;2.30;;
63555;SDS011;49700;48.072;7.800;2023-03-31T10:41:04;2.93;;;1.33;;
63555;SDS011;49700;48.072;7.800;2023-03-31T10:46:02;1.17;;;0.80;;
63555;SDS011;49700;48.072;7.800;2023-03-31T10:48:29;2.40;;;0.70;;
63555;SDS011;49700;48.072;7.800;2023-03-31T10:51:16;1.60;;;0.80;;
63555;SDS011;49700;48.072;7.800;2023-03-31T10:53:44;0.87;;;0.60;;
63555;SDS011;49700;48.072;7.800;2023-03-31T11:06:47;3.70;;;1.20;;
63555;SDS011;49700;48.072;7.800;2023-03-31T11:12:20;2.90;;;0.70;;
63555;SDS011;49700;48.072;7.800;2023-03-31T11:17:35;0.60;;;0.50;;
63555;SDS011;49700;48.072;7.800;2023-03-31T11:20:24;0.98;;;0.70;;
63555;SDS011;49700;48.072;7.800;2023-03-31T11:37:12;2.10;;;1.23;;
63555;SDS011;49700;48.072;7.800;2023-03-31T11:42:18;3.17;;;1.10;;
63555;SDS011;49700;48.072;7.800;2023-03-31T11:44:51;2.88;;;1.00;;
63555;SDS011;49700;48.072;7.800;2023-03-31T11:47:23;3.55;;;0.90;;
63555;SDS011;49700;48.072;7.800;2023-03-31T11:52:27;4.47;;;1.80;;
63555;SDS011;49700;48.072;7.800;2023-03-31T11:54:58;4.13;;;1.50;;
63555;SDS011;49700;48.072;7.800;2023-03-31T11:57:31;1.58;;;1.10;;
63555;SDS011;49700;48.072;7.800;2023-03-31T12:00:05;3.13;;;1.10;;
63555;SDS011;49700;48.072;7.800;2023-03-31T12:05:10;1.88;;;0.80;;
63555;SDS011;49700;48.072;7.800;2023-03-31T12:10:21;1.80;;;0.90;;
63555;SDS011;49700;48.072;7.800;2023-03-31T12:12:58;2.38;;;1.00;;
63555;SDS011;49700;48.072;7.800;2023-03-31T12:15:45;1.33;;;0.80;;
63555;SDS011;49700;48.072;7.800;2023-03-31T12:18:25;2.50;;;1.10;;
63555;SDS011;49700;48.072;7.800;2023-03-31T12:20:56;3.03;;;1.10;;
63555;SDS011;49700;48.072;7.800;2023-03-31T12:23:28;4.50;;;1.25;;
63555;SDS011;49700;48.072;7.800;2023-03-31T12:26:00;3.50;;;1.67;;
63555;SDS011;49700;48.072;7.800;2023-03-31T12:28:27;3.55;;;2.45;;
63555;SDS011;49700;48.072;7.800;2023-03-31T12:30:56;1.20;;;1.10;;
63555;SDS011;49700;48.072;7.800;2023-03-31T12:33:29;4.95;;;1.70;;
63555;SDS011;49700;48.072;7.800;2023-03-31T12:42:00;2.85;;;0.90;;
63555;SDS011;49700;48.072;7.800;2023-03-31T12:47:27;5.82;;;1.55;;
63555;SDS011;49700;48.072;7.800;2023-03-31T12:55:54;1.30;;;0.88;;
63555;SDS011;49700;48.072;7.800;2023-03-31T13:03:41;2.08;;;0.90;;
63555;SDS011;49700;48.072;7.800;2023-03-31T13:11:22;2.40;;;1.00;;
63555;SDS011;49700;48.072;7.800;2023-03-31T13:14:05;2.92;;;1.40;;
63555;SDS011;49700;48.072;7.800;2023-03-31T13:19:54;3.60;;;1.20;;
63555;SDS011;49700;48.072;7.800;2023-03-31T13:22:32;2.67;;;2.35;;
63555;SDS011;49700;48.072;7.800;2023-03-31T13:27:53;2.17;;;1.00;;
63555;SDS011;49700;48.072;7.800;2023-03-31T13:33:02;7.53;;;1.65;;
63555;SDS011;49700;48.072;7.800;2023-03-31T13:35:28;1.25;;;0.80;;
63555;SDS011;49700;48.072;7.800;2023-03-31T13:38:01;4.95;;;2.72;;
63555;SDS011;49700;48.072;7.800;2023-03-31T13:43:47;3.55;;;1.85;;
63555;SDS011;49700;48.072;7.800;2023-03-31T13:51:57;1.00;;;0.77;;
63555;SDS011;49700;48.072;7.800;2023-03-31T14:05:27;0.80;;;0.60;;
63555;SDS011;49700;48.072;7.800;2023-03-31T14:07:58;0.80;;;0.70;;
63555;SDS011;49700;48.072;7.800;2023-03-31T14:10:33;0.73;;;0.73;;
63555;SDS011;49700;48.072;7.800;2023-03-31T14:18:09;4.37;;;1.50;;
63555;SDS011;49700;48.072;7.800;2023-03-31T14:20:52;2.38;;;1.02;;
63555;SDS011;49700;48.072;7.800;2023-03-31T14:29:23;1.42;;;0.70;;
63555;SDS011;49700;48.072;7.800;2023-03-31T14:32:03;0.90;;;0.70;;
63555;SDS011;49700;48.072;7.800;2023-03-31T14:34:52;3.50;;;1.20;;
63555;SDS011;49700;48.072;7.800;2023-03-31T14:37:19;1.85;;;0.80;;
63555;SDS011;49700;48.072;7.800;2023-03-31T14:39:51;4.63;;;1.40;;
63555;SDS011;49700;48.072;7.800;2023-03-31T14:42:38;1.75;;;1.00;;
63555;SDS011;49700;48.072;7.800;2023-03-31T14:45:06;3.05;;;0.90;;
63555;SDS011;49700;48.072;7.800;2023-03-31T14:48:03;1.92;;;1.00;;
63555;SDS011;49700;48.072;7.800;2023-03-31T14:50:37;2.67;;;0.98;;
63555;SDS011;49700;48.072;7.800;2023-03-31T14:53:12;6.32;;;0.90;;
63555;SDS011;49700;48.072;7.800;2023-03-31T14:55:42;2.20;;;0.90;;
63555;SDS011;49700;48.072;7.800;2023-03-31T14:58:12;1.80;;;1.10;;
63555;SDS011;49700;48.072;7.800;2023-03-31T15:00:46;2.85;;;0.70;;
63555;SDS011;49700;48.072;7.800;2023-03-31T15:03:12;2.70;;;1.07;;
63555;SDS011;49700;48.072;7.800;2023-03-31T15:05:39;2.50;;;1.10;;
63555;SDS011;49700;48.072;7.800;2023-03-31T15:08:09;1.65;;;0.80;;
63555;SDS011;49700;48.072;7.800;2023-03-31T15:10:42;4.10;;;1.45;;
63555;SDS011;49700;48.072;7.800;2023-03-31T15:13:19;2.75;;;0.80;;
63555;SDS011;49700;48.072;7.800;2023-03-31T15:15:50;1.92;;;1.08;;
63555;SDS011;49700;48.072;7.800;2023-03-31T15:18:15;2.90;;;1.10;;
63555;SDS011;49700;48.072;7.800;2023-03-31T15:20:42;3.90;;;1.40;;
63555;SDS011;49700;48.072;7.800;2023-03-31T15:26:05;1.95;;;1.05;;
63555;SDS011;49700;48.072;7.800;2023-03-31T15:28:47;3.17;;;1.30;;
63555;SDS011;49700;48.072;7.800;2023-03-31T15:31:16;4.20;;;1.05;;
63555;SDS011;49700;48.072;7.800;2023-03-31T15:33:42;3.27;;;1.37;;
63555;SDS011;49700;48.072;7.800;2023-03-31T15:36:09;1.63;;;1.00;;
63555;SDS011;49700;48.072;7.800;2023-03-31T15:38:36;1.88;;;0.90;;
63555;SDS011;49700;48.072;7.800;2023-03-31T15:41:01;2.70;;;0.97;;
63555;SDS011;49700;48.072;7.800;2023-03-31T15:45:55;5.47;;;1.40;;
63555;SDS011;49700;48.072;7.800;2023-03-31T15:48:24;5.53;;;1.30;;
63555;SDS011;49700;48.072;7.800;2023-03-31T15:51:01;3.22;;;0.95;;
63555;SDS011;49700;48.072;7.800;2023-03-31T15:53:37;3.10;;;1.20;;
63555;SDS011;49700;48.072;7.800;2023-03-31T15:56:22;2.10;;;1.05;;
63555;SDS011;49700;48.072;7.800;2023-03-31T15:58:55;1.00;;;0.90;;
63555;SDS011;49700;48.072;7.800;2023-03-31T16:01:28;1.38;;;1.17;;
63555;SDS011;49700;48.072;7.800;2023-03-31T16:03:59;1.00;;;0.90;;
63555;SDS011;49700;48.072;7.800;2023-03-31T16:06:34;4.40;;;1.00;;
63555;SDS011;49700;48.072;7.800;2023-03-31T16:09:23;1.80;;;1.38;;
63555;SDS011;49700;48.072;7.800;2023-03-31T16:11:56;0.95;;;0.85;;
63555;SDS011;49700;48.072;7.800;2023-03-31T16:14:33;3.10;;;1.73;;
63555;SDS011;49700;48.072;7.800;2023-03-31T16:17:09;1.60;;;1.15;;
63555;SDS011;49700;48.072;7.800;2023-03-31T16:19:45;2.08;;;0.80;;
63555;SDS011;49700;48.072;7.800;2023-03-31T16:22:15;3.72;;;1.48;;
63555;SDS011;49700;48.072;7.800;2023-03-31T16:24:44;3.42;;;1.33;;
63555;SDS011;49700;48.072;7.800;2023-03-31T16:27:10;1.30;;;0.80;;
63555;SDS011;49700;48.072;7.800;2023-03-31T16:29:36;2.73;;;1.00;;
63555;SDS011;49700;48.072;7.800;2023-03-31T16:32:05;1.83;;;1.20;;
63555;SDS011;49700;48.072;7.800;2023-03-31T16:34:55;3.50;;;1.48;;
63555;SDS011;49700;48.072;7.800;2023-03-31T16:37:22;2.72;;;1.05;;
63555;SDS011;49700;48.072;7.800;2023-03-31T16:39:48;2.35;;;1.60;;
63555;SDS011;49700;48.072;7.800;2023-03-31T16:42:14;4.37;;;1.87;;
63555;SDS011;49700;48.072;7.800;2023-03-31T16:44:40;4.10;;;1.50;;
63555;SDS011;49700;48.072;7.800;2023-03-31T16:47:05;5.03;;;1.90;;
63555;SDS011;49700;48.072;7.800;2023-03-31T16:49:31;8.20;;;2.70;;
63555;SDS011;49700;48.072;7.800;2023-03-31T16:51:56;3.00;;;1.83;;
63555;SDS011;49700;48.072;7.800;2023-03-31T16:54:22;3.40;;;1.60;;
63555;SDS011;49700;48.072;7.800;2023-03-31T16:56:47;3.57;;;1.70;;
63555;SDS011;49700;48.072;7.800;2023-03-31T16:59:12;8.37;;;1.90;;
63555;SDS011;49700;48.072;7.800;2023-03-31T17:01:38;10.50;;;1.50;;
63555;SDS011;49700;48.072;7.800;2023-03-31T17:04:04;7.40;;;2.63;;
63555;SDS011;49700;48.072;7.800;2023-03-31T17:06:29;5.77;;;2.40;;
63555;SDS011;49700;48.072;7.800;2023-03-31T17:08:54;3.17;;;2.23;;
63555;SDS011;49700;48.072;7.800;2023-03-31T17:11:20;5.87;;;2.03;;
63555;SDS011;49700;48.072;7.800;2023-03-31T17:13:46;3.05;;;1.40;;
63555;SDS011;49700;48.072;7.800;2023-03-31T17:16:12;2.13;;;1.47;;
63555;SDS011;49700;48.072;7.800;2023-03-31T17:18:38;2.17;;;1.50;;
63555;SDS011;49700;48.072;7.800;2023-03-31T17:21:04;2.07;;;1.30;;
63555;SDS011;49700;48.072;7.800;2023-03-31T17:23:32;3.25;;;1.60;;
63555;SDS011;49700;48.072;7.800;2023-03-31T17:25:58;6.28;;;2.55;;
63555;SDS011;49700;48.072;7.800;2023-03-31T17:28:23;4.03;;;2.27;;
63555;SDS011;49700;48.072;7.800;2023-03-31T17:30:49;5.30;;;3.23;;
63555;SDS011;49700;48.072;7.800;2023-03-31T17:33:15;3.17;;;2.33;;
63555;SDS011;49700;48.072;7.800;2023-03-31T17:35:40;1.60;;;1.10;;
63555;SDS011;49700;48.072;7.800;2023-03-31T17:38:07;4.15;;;2.45;;
63555;SDS011;49700;48.072;7.800;2023-03-31T17:40:34;2.72;;;1.30;;
63555;SDS011;49700;48.072;7.800;2023-03-31T17:42:59;2.90;;;1.27;;
63555;SDS011;49700;48.072;7.800;2023-03-31T17:45:27;4.93;;;2.13;;
63555;SDS011;49700;48.072;7.800;2023-03-31T17:47:53;2.67;;;1.50;;
63555;SDS011;49700;48.072;7.800;2023-03-31T17:50:19;6.07;;;1.48;;
63555;SDS011;49700;48.072;7.800;2023-03-31T17:52:45;1.77;;;1.20;;
63555;SDS011;49700;48.072;7.800;2023-03-31T17:55:10;2.63;;;1.43;;
63555;SDS011;49700;48.072;7.800;2023-03-31T17:57:36;2.87;;;1.50;;
63555;SDS011;49700;48.072;7.800;2023-03-31T18:00:04;2.80;;;1.58;;
63555;SDS011;49700;48.072;7.800;2023-03-31T18:02:37;3.53;;;1.13;;
63555;SDS011;49700;48.072;7.800;2023-03-31T18:05:04;2.58;;;1.77;;
63555;SDS011;49700;48.072;7.800;2023-03-31T18:07:31;2.65;;;1.13;;
63555;SDS011;49700;48.072;7.800;2023-03-31T18:09:57;11.32;;;1.40;;
63555;SDS011;49700;48.072;7.800;2023-03-31T18:12:23;4.87;;;1.37;;